Time;durP1;ratioP1;P1;durP2;ratioP2;P2;SDS_P1;SDS_P2;PMS_P1;PMS_P2;Temp;Humidity;BMP_temperature;BMP_pressure;BME280_temperature;BME280_humidity;BME280_pressure;Samples;Min_cycle;Max_cycle;Signal;HPM_P1;HPM_P2
2024/04/26 00:02:16;;;;;;;;;30.00;27.00;;;;;3.22;100.00;99005.56;6274176;20;2844242;-53
2024/04/26 00:04:44;;;;;;;;;31.50;27.50;;;;;2.84;100.00;99000.94;6276299;20;2846149;-54
2024/04/26 00:07:11;;;;;;;;;29.50;25.50;;;;;2.36;100.00;99001.97;6272690;20;2500280;-53
2024/04/26 00:09:38;;;;;;;;;27.00;27.00;;;;;2.34;100.00;98992.34;6271112;20;2500446;-55
2024/04/26 00:12:05;;;;;;;;;32.00;26.00;;;;;2.93;100.00;98996.19;6271065;20;2844068;-54
2024/04/26 00:14:33;;;;;;;;;30.50;27.00;;;;;2.47;100.00;98996.22;6274266;20;2842056;-55
2024/04/26 00:17:01;;;;;;;;;30.00;29.00;;;;;2.40;100.00;98986.81;6276568;20;2847234;-50
2024/04/26 00:19:28;;;;;;;;;31.00;31.00;;;;;2.70;100.00;98992.66;6272273;20;2841024;-54
2024/04/26 00:21:56;;;;;;;;;31.50;29.50;;;;;2.81;100.00;98997.53;6274224;20;2842997;-54
2024/04/26 00:24:22;;;;;;;;;26.50;26.00;;;;;3.00;100.00;99003.81;6272468;20;2500415;-53
2024/04/26 00:26:50;;;;;;;;;34.50;29.50;;;;;3.16;100.00;99001.38;6274146;20;2852401;-54
2024/04/26 00:29:18;;;;;;;;;28.50;26.00;;;;;2.96;100.00;99006.66;6271863;20;2849334;-54
2024/04/26 00:31:45;;;;;;;;;30.50;27.00;;;;;3.10;100.00;99006.06;6271001;20;2500359;-53
2024/04/26 00:34:13;;;;;;;;;30.00;26.00;;;;;3.16;100.00;99012.00;6275165;20;2833761;-51
2024/04/26 00:36:41;;;;;;;;;31.00;30.00;;;;;2.98;100.00;99015.41;6273916;20;2854481;-52
2024/04/26 00:39:09;;;;;;;;;36.00;26.00;;;;;3.03;100.00;99019.59;6272077;20;2860737;-53
2024/04/26 00:41:36;;;;;;;;;36.50;30.50;;;;;3.05;100.00;99011.56;6272946;20;2860802;-51
2024/04/26 00:44:10;;;;;;;;;30.50;26.00;;;;;2.86;100.00;99016.75;6273253;20;2852639;-49
2024/04/26 00:46:44;;;;;;;;;36.00;27.00;;;;;2.75;100.00;99016.34;6271945;20;2492053;-50
2024/04/26 00:49:12;;;;;;;;;29.00;25.00;;;;;2.22;100.00;99014.88;6269862;20;2494038;-50
2024/04/26 00:51:46;;;;;;;;;34.00;30.50;;;;;2.09;100.00;99009.19;6273759;20;2858622;-52
2024/04/26 00:54:16;;;;;;;;;32.00;27.00;;;;;1.95;100.00;99008.88;6271722;20;2500351;-53
2024/04/26 00:56:43;;;;;;;;;28.00;25.00;;;;;2.04;100.00;99007.66;6270785;20;2500411;-53
2024/04/26 00:59:15;;;;;;;;;25.00;20.00;;;;;2.19;100.00;99007.06;6272932;20;3554456;-51
2024/04/26 01:01:43;;;;;;;;;27.50;24.50;;;;;2.11;100.00;99009.16;6304169;20;2842994;-51
2024/04/26 01:04:10;;;;;;;;;25.00;24.50;;;;;2.01;100.00;99018.34;6271269;20;2500312;-52
2024/04/26 01:06:36;;;;;;;;;29.00;24.00;;;;;1.77;100.00;99020.13;6271168;20;2496252;-45
2024/04/26 01:09:04;;;;;;;;;26.33;24.67;;;;;1.65;100.00;99016.13;6272801;20;3568077;-43
2024/04/26 01:11:32;;;;;;;;;27.00;22.33;;;;;1.85;100.00;99016.28;6274774;20;3580499;-43
2024/04/26 01:13:58;;;;;;;;;27.00;22.00;;;;;2.75;100.00;99022.50;6272826;20;2850319;-47
2024/04/26 01:16:25;;;;;;;;;22.50;21.00;;;;;2.75;100.00;99026.94;6275089;20;2824275;-45
2024/04/26 01:18:52;;;;;;;;;22.67;21.67;;;;;2.52;100.00;99027.84;6270123;20;3563899;-45
2024/04/26 01:21:20;;;;;;;;;29.50;23.50;;;;;2.36;100.00;99020.50;6267019;20;2500440;-44
2024/04/26 01:23:46;;;;;;;;;20.50;20.50;;;;;2.00;100.00;99027.19;6275666;20;2829489;-43
2024/04/26 01:26:13;;;;;;;;;30.50;23.50;;;;;1.80;100.00;99020.88;6271194;20;2857571;-43
2024/04/26 01:28:40;;;;;;;;;26.00;20.00;;;;;1.39;100.00;99025.84;6270755;20;2856572;-44
2024/04/26 01:31:07;;;;;;;;;23.00;21.00;;;;;1.28;100.00;99033.31;6270211;20;2835736;-44
2024/04/26 01:33:33;;;;;;;;;27.00;24.00;;;;;1.35;100.00;99026.03;6269426;20;2838809;-47
2024/04/26 01:36:01;;;;;;;;;22.67;20.00;;;;;0.77;100.00;99026.22;6276214;20;3559636;-45
2024/04/26 01:38:28;;;;;;;;;24.00;17.50;;;;;0.85;100.00;99021.53;6272496;20;2837825;-45
2024/04/26 01:40:54;;;;;;;;;22.00;19.50;;;;;1.51;100.00;99029.88;6270469;20;2812791;-44
2024/04/26 01:43:22;;;;;;;;;33.33;23.67;;;;;1.40;100.00;99026.75;6262625;20;3589927;-44
2024/04/26 01:45:49;;;;;;;;;24.33;19.33;;;;;1.04;100.00;99030.56;6298298;20;3558638;-45
2024/04/26 01:48:17;;;;;;;;;21.00;20.33;;;;;1.19;100.00;99031.00;6268472;20;3566980;-46
2024/04/26 01:50:44;;;;;;;;;19.67;19.00;;;;;1.66;100.00;99033.72;6303826;20;3573174;-44
2024/04/26 01:53:11;;;;;;;;;23.00;20.00;;;;;1.68;100.00;99037.19;6275155;20;2823217;-44
2024/04/26 01:55:38;;;;;;;;;34.33;20.00;;;;;1.74;100.00;99048.44;6271159;20;3594033;-46
2024/04/26 01:58:06;;;;;;;;;20.00;19.00;;;;;1.70;100.00;99048.59;6269728;20;3558598;-44
2024/04/26 02:00:33;;;;;;;;;24.67;22.00;;;;;1.42;100.00;99044.28;6302363;20;3559654;-47
2024/04/26 02:03:00;;;;;;;;;26.00;21.00;;;;;1.33;100.00;99052.53;6269865;20;2831754;-47
2024/04/26 02:05:27;;;;;;;;;29.00;23.50;;;;;1.07;100.00;99046.31;6273977;20;2848252;-44
2024/04/26 02:07:54;;;;;;;;;26.33;21.33;;;;;1.12;100.00;99047.97;6270403;20;3558713;-46
2024/04/26 02:10:21;;;;;;;;;17.00;17.00;;;;;1.64;100.00;99049.69;6301803;20;3557795;-43
2024/04/26 02:12:48;;;;;;;;;20.00;15.50;;;;;1.59;100.00;99059.56;6294826;20;2823390;-46
2024/04/26 02:15:15;;;;;;;;;28.00;23.00;;;;;1.74;100.00;99050.22;6269535;20;2836777;-45
2024/04/26 02:17:41;;;;;;;;;30.00;20.50;;;;;1.84;100.00;99056.03;6277386;20;2844199;-43
2024/04/26 02:20:08;;;;;;;;;5.33;2.33;;;;;1.94;100.00;99055.63;6280075;20;3455509;-43
2024/04/26 02:22:36;;;;;;;;;28.00;24.33;;;;;1.94;100.00;99060.06;6306970;20;3576304;-45
2024/04/26 02:25:02;;;;;;;;;27.00;21.00;;;;;2.10;100.00;99060.38;6308017;20;2831561;-44
2024/04/26 02:27:29;;;;;;;;;31.50;24.00;;;;;2.39;100.00;99061.91;6276186;20;2848709;-44
2024/04/26 02:29:57;;;;;;;;;25.00;21.00;;;;;2.08;100.00;99072.78;6274706;20;2500300;-44
2024/04/26 02:32:23;;;;;;;;;25.00;24.00;;;;;2.22;100.00;99070.50;6274886;20;2839916;-44
2024/04/26 02:34:51;;;;;;;;;24.00;22.67;;;;;1.69;100.00;99062.75;6277617;20;3576424;-46
2024/04/26 02:37:18;;;;;;;;;31.00;25.50;;;;;1.42;100.00;99067.19;6273884;20;2491983;-43
2024/04/26 02:39:44;;;;;;;;;32.50;29.50;;;;;0.91;100.00;99060.97;6274584;20;2500407;-45
2024/04/26 02:42:11;;;;;;;;;34.50;29.50;;;;;1.47;100.00;99054.69;6272562;20;2500304;-44
2024/04/26 02:44:37;;;;;;;;;34.50;32.50;;;;;1.55;100.00;99057.91;6272783;20;2500297;-44
2024/04/26 02:47:05;;;;;;;;;31.00;27.50;;;;;0.99;100.00;99055.44;6275606;20;2851415;-44
2024/04/26 02:49:32;;;;;;;;;28.00;27.50;;;;;0.94;100.00;99060.88;6275132;20;2500359;-47
2024/04/26 02:51:58;;;;;;;;;32.50;26.00;;;;;1.65;100.00;99058.47;6273732;20;2500323;-44
2024/04/26 02:54:25;;;;;;;;;31.50;30.50;;;;;1.65;100.00;99064.63;6274626;20;2500438;-46
2024/04/26 02:56:54;;;;;;;;;26.00;25.50;;;;;1.45;100.00;99069.72;6275372;20;2841980;-45
2024/04/26 02:59:22;;;;;;;;;33.50;27.50;;;;;0.91;100.00;99060.09;6275031;20;2846238;-45
2024/04/26 03:01:49;;;;;;;;;25.67;20.67;;;;;0.82;100.00;99058.63;6273292;20;3571157;-45
2024/04/26 03:04:17;;;;;;;;;24.67;23.00;;;;;0.61;100.00;99062.81;6274434;20;3564949;-45
2024/04/26 03:06:44;;;;;;;;;20.00;20.00;;;;;0.99;100.00;99055.44;6306991;20;2500291;-45
2024/04/26 03:09:11;;;;;;;;;27.67;22.00;;;;;1.27;100.00;99068.59;6275237;20;3553443;-44
2024/04/26 03:11:38;;;;;;;;;23.33;20.00;;;;;1.53;100.00;99071.22;6308428;20;3559790;-44
2024/04/26 03:14:07;;;;;;;;;23.33;20.00;;;;;1.52;100.00;99074.75;6307536;20;3557683;-44
2024/04/26 03:16:43;;;;;;;;;23.00;22.67;;;;;1.25;100.00;99070.44;6273989;20;3573165;-46
2024/04/26 03:19:14;;;;;;;;;26.00;19.67;;;;;1.30;100.00;99066.72;6304865;20;3553547;-44
2024/04/26 03:21:45;;;;;;;;;29.00;20.00;;;;;1.59;100.00;99079.88;6306483;20;3556608;-43
2024/04/26 03:24:15;;;;;;;;;20.50;16.33;;;;;1.16;100.00;99076.91;6328472;20;2822162;-46
2024/04/26 03:26:42;;;;;;;;;30.50;22.50;;;;;1.19;100.00;99078.59;6304219;20;2851390;-44
2024/04/26 03:29:09;;;;;;;;;26.00;23.50;;;;;1.27;100.00;99089.75;6268734;20;2500346;-43
2024/04/26 03:31:35;;;;;;;;;30.00;26.00;;;;;1.15;100.00;99085.72;6269793;20;2500316;-43
2024/04/26 03:34:03;;;;;;;;;26.67;26.33;;;;;0.94;100.00;99082.00;6275337;20;3595172;-44
2024/04/26 03:36:31;;;;;;;;;24.67;21.67;;;;;0.70;100.00;99088.06;6271224;20;3579434;-43
2024/04/26 03:38:57;;;;;;;;;27.00;23.00;;;;;0.84;100.00;99088.50;6303261;20;2500513;-45
2024/04/26 03:41:25;;;;;;;;;25.00;21.00;;;;;0.95;100.00;99089.03;6273377;20;3565901;-44
2024/04/26 03:43:53;;;;;;;;;32.33;23.00;;;;;1.37;100.00;99091.19;6303755;20;3576305;-44
2024/04/26 03:46:19;;;;;;;;;23.00;19.00;;;;;1.41;100.00;99091.94;6273175;20;2811815;-44
2024/04/26 03:48:47;;;;;;;;;20.67;18.67;;;;;1.38;100.00;99092.91;6271922;20;3552346;-43
2024/04/26 03:51:15;;;;;;;;;21.33;21.33;;;;;1.41;100.00;99092.78;6307134;20;3571254;-45
2024/04/26 03:53:43;;;;;;;;;20.00;17.67;;;;;1.08;100.00;99094.81;6307204;20;3548205;-46
2024/04/26 03:56:10;;;;;;;;;22.00;19.00;;;;;0.90;100.00;99090.97;6304582;20;3549404;-45
2024/04/26 03:58:40;;;;;;;;;22.00;22.00;;;;;0.98;100.00;99088.06;6307010;20;2837819;-44
2024/04/26 04:01:07;;;;;;;;;25.00;18.50;;;;;1.27;100.00;99089.75;6276361;20;2826434;-43
2024/04/26 04:03:34;;;;;;;;;22.33;19.67;;;;;1.66;100.00;99091.94;6271725;20;3550303;-48
2024/04/26 04:06:02;;;;;;;;;22.67;22.67;;;;;2.14;100.00;99104.34;6305636;20;3567985;-46
2024/04/26 04:08:29;;;;;;;;;26.67;23.00;;;;;1.81;100.00;99117.00;6274454;20;3583629;-44
2024/04/26 04:10:56;;;;;;;;;22.00;19.00;;;;;1.90;100.00;99112.25;6308376;20;2821131;-45
2024/04/26 04:13:22;;;;;;;;;24.00;20.50;;;;;1.87;100.00;99112.38;6277270;20;2827473;-47
2024/04/26 04:15:50;;;;;;;;;27.00;17.00;;;;;1.63;100.00;99107.91;6273774;20;3569207;-46
2024/04/26 04:18:16;;;;;;;;;32.00;24.00;;;;;1.51;100.00;99104.78;6305174;20;2838980;-46
2024/04/26 04:20:43;;;;;;;;;24.00;24.00;;;;;1.63;100.00;99106.13;6276746;20;2848307;-49
2024/04/26 04:23:10;;;;;;;;;35.00;32.00;;;;;2.23;100.00;99111.09;6270491;20;2500311;-45
2024/04/26 04:25:37;;;;;;;;;34.50;30.00;;;;;2.14;100.00;99110.50;6275391;20;2854494;-47
2024/04/26 04:28:04;;;;;;;;;24.00;20.00;;;;;2.55;100.00;99120.47;6275323;20;2827382;-45
2024/04/26 04:30:32;;;;;;;;;26.00;21.00;;;;;4.58;100.00;99124.31;6271741;20;2832675;-47
2024/04/26 04:32:59;;;;;;;;;29.00;24.33;;;;;6.51;100.00;99144.94;6273498;20;3583658;-46
2024/04/26 04:35:27;;;;;;;;;29.00;25.00;;;;;7.42;94.26;99136.25;6274741;20;2841029;-46
2024/04/26 04:37:55;;;;;;;;;30.00;30.00;;;;;9.81;74.64;99147.31;6274112;20;2851305;-43
2024/04/26 04:40:22;;;;;;;;;29.00;29.00;;;;;9.79;69.79;99149.22;6275525;20;2857842;-47
2024/04/26 04:42:50;;;;;;;;;34.00;25.00;;;;;11.23;63.77;99150.88;6274029;20;2857666;-48
2024/04/26 04:45:17;;;;;;;;;29.50;25.00;;;;;11.24;58.89;99152.59;6273864;20;2852349;-45
2024/04/26 04:47:46;;;;;;;;;32.67;27.67;;;;;9.45;66.51;99146.13;6273944;20;3597131;-44
2024/04/26 04:50:13;;;;;;;;;26.00;22.00;;;;;9.07;74.33;99155.78;6305268;20;2841282;-44
2024/04/26 04:52:42;;;;;;;;;34.00;29.67;;;;;10.08;64.58;99157.13;6275001;20;3607580;-43
2024/04/26 04:55:09;;;;;;;;;27.67;26.33;;;;;7.20;85.33;99159.81;6307049;20;3593086;-46
2024/04/26 04:57:37;;;;;;;;;32.33;28.33;;;;;5.83;94.92;99163.53;6272785;20;2856562;-44
2024/04/26 05:00:06;;;;;;;;;35.00;30.00;;;;;5.21;100.00;99165.69;6303527;20;3605583;-47
2024/04/26 05:02:35;;;;;;;;;31.67;30.33;;;;;5.26;100.00;99158.34;6306430;20;2869163;-51
2024/04/26 05:05:02;;;;;;;;;30.33;30.33;;;;;5.14;100.00;99158.97;6307237;20;3596592;-43
2024/04/26 05:07:31;;;;;;;;;36.33;33.00;;;;;5.11;100.00;99164.41;6271041;20;3611924;-42
2024/04/26 05:09:59;;;;;;;;;41.67;34.33;;;;;6.09;100.00;99170.25;6304421;20;2869179;-42
2024/04/26 05:12:26;;;;;;;;;35.33;31.00;;;;;5.46;100.00;99160.91;6307327;20;3610800;-40
2024/04/26 05:14:55;;;;;;;;;40.33;33.33;;;;;5.61;100.00;99158.41;6273481;20;3621155;-41
2024/04/26 05:17:22;;;;;;;;;36.00;32.00;;;;;8.32;100.00;99163.94;6306518;20;2736926;-41
2024/04/26 05:19:50;;;;;;;;;26.00;26.00;;;;;7.92;95.09;99163.66;6269001;20;2858829;-41
2024/04/26 05:22:18;;;;;;;;;24.50;24.00;;;;;8.17;99.25;99168.41;6303900;20;2852418;-42
2024/04/26 05:24:45;;;;;;;;;25.00;25.00;;;;;7.81;100.00;99171.47;6269305;20;2841399;-47
2024/04/26 05:27:15;;;;;;;;;20.00;17.00;;;;;7.01;100.00;99162.66;6275379;20;2833627;-47
2024/04/26 05:29:46;;;;;;;;;24.00;23.00;;;;;9.07;94.18;99169.16;6272437;20;2840905;-45
2024/04/26 05:32:14;;;;;;;;;29.00;24.50;;;;;8.46;93.07;99179.19;6273229;20;2840960;-45
2024/04/26 05:34:45;;;;;;;;;25.50;24.50;;;;;8.28;94.49;99179.31;6272731;20;2850295;-45
2024/04/26 05:37:13;;;;;;;;;29.50;26.00;;;;;7.15;100.00;99178.75;6271760;20;2850315;-47
2024/04/26 05:39:40;;;;;;;;;21.00;19.00;;;;;6.78;100.00;99175.44;6267413;20;2500355;-45
2024/04/26 05:42:07;;;;;;;;;7.33;7.33;;;;;7.35;100.00;99183.00;6276477;20;3461720;-47
2024/04/26 05:44:33;;;;;;;;;21.50;19.50;;;;;8.43;99.35;99190.09;6301762;20;2500277;-47
2024/04/26 05:47:00;;;;;;;;;18.50;16.00;;;;;8.91;90.82;99191.53;6270983;20;2500286;-44
2024/04/26 05:49:27;;;;;;;;;15.33;15.33;;;;;9.88;88.00;99188.84;6270514;20;3537757;-45
2024/04/26 05:51:55;;;;;;;;;18.00;17.50;;;;;10.55;80.20;99198.66;6268721;20;2836760;-46
2024/04/26 05:54:22;;;;;;;;;15.50;15.50;;;;;11.29;75.87;99209.56;6274367;20;2821155;-46
2024/04/26 05:56:50;;;;;;;;;16.33;14.00;;;;;8.82;81.96;99197.50;6271163;20;3546544;-45
2024/04/26 05:59:17;;;;;;;;;13.00;12.00;;;;;7.98;87.04;99200.75;6305013;20;2789911;-45
2024/04/26 06:01:45;;;;;;;;;18.00;13.00;;;;;8.49;85.76;99203.09;6273493;20;3523233;-44
2024/04/26 06:04:13;;;;;;;;;13.00;13.00;;;;;8.63;85.34;99212.94;6305229;20;2790964;-44
2024/04/26 06:06:45;;;;;;;;;13.00;13.00;;;;;8.67;89.04;99206.47;6273595;20;2787903;-47
2024/04/26 06:09:13;;;;;;;;;14.67;14.67;;;;;8.69;90.99;99207.19;6303459;20;3539890;-46
2024/04/26 06:11:39;;;;;;;;;13.00;13.00;;;;;8.69;93.86;99213.44;6307237;20;2796183;-46
2024/04/26 06:14:06;;;;;;;;;12.00;12.00;;;;;9.07;89.39;99217.38;6277434;20;2790091;-44
2024/04/26 06:16:32;;;;;;;;;14.00;14.00;;;;;9.45;84.73;99218.47;6277094;20;2798301;-48
2024/04/26 06:18:59;;;;;;;;;13.00;11.00;;;;;9.42;77.89;99215.09;6267525;20;2783259;-46
2024/04/26 06:21:27;;;;;;;;;11.80;11.60;;;;;9.42;80.11;99224.00;6292325;20;2794064;-46
2024/04/26 06:23:54;;;;;;;;;12.00;11.00;;;;;9.83;78.41;99228.50;6264276;20;2789885;-48
2024/04/26 06:26:21;;;;;;;;;20.00;16.00;;;;;9.67;78.15;99222.44;6265594;20;2500326;-45
2024/04/26 06:28:49;;;;;;;;;11.67;10.67;;;;;9.82;78.75;99224.09;6264441;20;2796196;-46
2024/04/26 06:31:17;;;;;;;;;15.50;14.00;;;;;10.29;76.76;99232.63;6298755;20;2797237;-44
2024/04/26 06:33:44;;;;;;;;;11.50;11.50;;;;;10.60;74.80;99234.09;6266738;20;2792002;-49
2024/04/26 06:36:10;;;;;;;;;10.00;10.00;;;;;10.51;74.15;99234.72;6266714;20;2779481;-45
2024/04/26 06:38:39;;;;;;;;;9.80;9.80;;;;;11.06;71.80;99241.63;6289501;20;2771175;-47
2024/04/26 06:41:07;;;;;;;;;9.60;9.60;;;;;11.06;73.90;99246.13;6292529;20;2775287;-46
2024/04/26 06:43:34;;;;;;;;;9.00;9.00;;;;;11.45;73.97;99255.84;6265980;20;2746565;-47
2024/04/26 06:46:01;;;;;;;;;10.00;9.00;;;;;11.41;67.95;99249.00;6264214;20;2758646;-46
2024/04/26 06:48:27;;;;;;;;;8.00;7.00;;;;;11.49;71.27;99254.69;6270083;20;2738817;-47
2024/04/26 06:50:54;;;;;;;;;10.50;10.50;;;;;11.84;69.79;99259.31;6268506;20;2778574;-48
2024/04/26 06:53:21;;;;;;;;;10.67;10.67;;;;;12.26;63.64;99254.41;6266172;20;2800377;-46
2024/04/26 06:55:50;;;;;;;;;9.40;9.40;;;;;13.04;62.14;99255.63;6318760;20;2756603;-48
2024/04/26 06:58:16;;;;;;;;;12.50;12.00;;;;;12.61;61.25;99259.81;6265201;20;2786812;-44
2024/04/26 07:00:45;;;;;;;;;10.00;8.20;;;;;12.48;66.09;99259.91;6290822;20;2766986;-46
2024/04/26 07:03:11;;;;;;;;;13.00;13.00;;;;;12.85;66.53;99261.56;6275241;20;2784667;-44
2024/04/26 07:05:38;;;;;;;;;7.00;7.00;;;;;13.45;61.48;99263.13;6276030;20;2748231;-45
2024/04/26 07:08:06;;;;;;;;;15.00;13.00;;;;;13.93;61.31;99265.53;6277322;20;2803427;-46
2024/04/26 07:10:34;;;;;;;;;13.67;11.33;;;;;13.70;62.23;99266.56;6301432;20;2790237;-47
2024/04/26 07:13:01;;;;;;;;;11.67;11.67;;;;;13.57;60.50;99264.84;6296502;20;3508724;-46
2024/04/26 07:15:29;;;;;;;;;12.00;10.40;;;;;14.01;58.70;99267.59;6326738;20;2794090;-45
2024/04/26 07:17:57;;;;;;;;;10.67;10.00;;;;;14.30;56.29;99267.00;6271141;20;2790947;-46
2024/04/26 07:20:25;;;;;;;;;11.00;11.00;;;;;14.81;55.97;99266.31;6305424;20;2791118;-45
2024/04/26 07:22:51;;;;;;;;;12.00;10.00;;;;;14.71;55.60;99263.53;6309162;20;2786942;-47
2024/04/26 07:25:19;;;;;;;;;8.50;8.50;;;;;14.68;52.12;99271.91;6279572;20;2744068;-48
2024/04/26 07:27:47;;;;;;;;;7.00;6.20;;;;;14.79;51.61;99268.28;6304166;20;2737828;-46
2024/04/26 07:30:14;;;;;;;;;6.00;4.00;;;;;14.40;53.70;99267.94;6310482;20;2744061;-44
2024/04/26 07:32:40;;;;;;;;;7.50;6.50;;;;;14.31;50.38;99268.72;6283080;20;2734848;-44
2024/04/26 07:35:08;;;;;;;;;6.40;6.40;;;;;14.12;49.86;99270.28;6303241;20;2736812;-45
2024/04/26 07:37:37;;;;;;;;;5.00;5.00;;;;;15.14;49.49;99273.38;6335511;20;2745135;-45
2024/04/26 07:40:04;;;;;;;;;8.00;8.00;;;;;14.78;50.24;99274.69;6311728;20;2732574;-44
2024/04/26 07:42:32;;;;;;;;;8.40;7.00;;;;;15.69;49.36;99281.16;6302685;20;2737804;-45
2024/04/26 07:45:02;;;;;;;;;6.00;6.00;;;;;15.99;47.09;99281.13;6334800;20;2740959;-42
2024/04/26 07:47:30;;;;;;;;;8.00;6.00;;;;;15.53;49.60;99282.53;6335224;20;2748364;-45
2024/04/26 07:49:56;;;;;;;;;6.00;6.00;;;;;14.80;48.35;99275.44;6310880;20;2741950;-43
2024/04/26 07:52:25;;;;;;;;;6.20;6.20;;;;;15.14;47.94;99276.06;6305734;20;2741962;-44
2024/04/26 07:54:55;;;;;;;;;7.60;6.00;;;;;15.82;49.21;99279.06;6332233;20;2740921;-45
2024/04/26 07:57:25;;;;;;;;;7.60;6.60;;;;;14.75;45.66;99278.50;6302751;20;2748265;-45
2024/04/26 07:59:53;;;;;;;;;5.00;5.00;;;;;15.92;45.65;99285.38;6309020;20;2750286;-43
2024/04/26 08:02:23;;;;;;;;;5.00;5.00;;;;;15.48;43.20;99286.59;6321534;20;3452362;-46
2024/04/26 08:04:49;;;;;;;;;8.00;8.00;;;;;14.94;44.96;99283.19;6307668;20;2737899;-45
2024/04/26 08:07:18;;;;;;;;;6.00;6.00;;;;;15.59;44.33;99294.66;6305492;20;2745139;-44
2024/04/26 08:09:46;;;;;;;;;8.00;8.00;;;;;17.09;44.13;99288.19;6334255;20;2748322;-44
2024/04/26 08:12:14;;;;;;;;;6.00;6.00;;;;;17.37;44.69;99286.38;6300544;20;2736774;-43
2024/04/26 08:14:42;;;;;;;;;7.40;6.20;;;;;14.95;45.06;99290.31;6333875;20;2737799;-45
2024/04/26 08:17:11;;;;;;;;;6.80;6.80;;;;;16.36;43.87;99294.03;6333721;20;2744171;-46
2024/04/26 08:19:39;;;;;;;;;9.40;8.00;;;;;16.28;43.14;99299.28;6331541;20;2744173;-44
2024/04/26 08:22:06;;;;;;;;;10.00;8.50;;;;;17.50;41.63;99291.47;6310328;20;2757628;-44
2024/04/26 08:24:32;;;;;;;;;6.00;6.00;;;;;16.85;43.88;99294.91;6279604;20;2746152;-47
2024/04/26 08:26:59;;;;;;;;;11.00;8.00;;;;;16.44;42.44;99296.03;6278398;20;2775352;-45
2024/04/26 08:29:26;;;;;;;;;8.00;8.00;;;;;15.09;44.28;99287.28;6279264;20;2748233;-44
2024/04/26 08:31:53;;;;;;;;;8.00;8.00;;;;;16.04;43.96;99296.13;6281292;20;2739886;-44
2024/04/26 08:34:24;;;;;;;;;11.00;11.00;;;;;16.12;45.59;99299.00;6277161;20;2794219;-44
2024/04/26 08:36:51;;;;;;;;;10.00;10.00;;;;;16.78;44.01;99299.19;6305418;20;2796245;-43
2024/04/26 08:39:19;;;;;;;;;8.40;8.40;;;;;15.36;47.02;99294.81;6333794;20;2762807;-43
2024/04/26 08:41:46;;;;;;;;;12.00;12.00;;;;;15.68;45.83;99301.09;6278533;20;2790021;-45
2024/04/26 08:44:16;;;;;;;;;11.67;11.67;;;;;16.12;45.99;99294.41;6276339;20;3520080;-44
2024/04/26 08:46:46;;;;;;;;;10.00;10.00;;;;;15.76;44.81;99306.72;6274671;20;2796157;-43
2024/04/26 08:49:17;;;;;;;;;11.00;10.00;;;;;16.08;44.31;99295.69;6305886;20;3509655;-45
2024/04/26 08:51:53;;;;;;;;;11.00;11.00;;;;;16.27;45.75;99305.69;6307718;20;3510691;-44
2024/04/26 08:54:20;;;;;;;;;11.00;10.00;;;;;15.86;46.33;99295.91;6312063;20;2789991;-43
2024/04/26 08:56:59;;;;;;;;;9.50;9.50;;;;;16.20;45.48;99296.44;6280047;20;2775373;-44
2024/04/26 09:00:04;;;;;;;;;12.00;12.00;;;;;16.43;45.03;99305.16;6300119;20;2784693;-45
2024/04/26 09:02:35;;;;;;;;;11.00;11.00;;;;;16.86;45.12;99306.63;6281341;20;2794067;-46
2024/04/26 09:05:03;;;;;;;;;12.67;12.67;;;;;16.59;45.81;99310.03;6275156;20;2794148;-44
2024/04/26 09:07:30;;;;;;;;;11.50;11.50;;;;;17.01;45.86;99302.47;6312065;20;2792085;-44
2024/04/26 09:09:56;;;;;;;;;14.00;12.00;;;;;17.31;43.82;99306.81;6275496;20;2675292;-43
2024/04/26 09:12:25;;;;;;;;;11.60;11.60;;;;;17.19;44.88;99299.84;6301297;20;2787792;-44
2024/04/26 09:14:53;;;;;;;;;11.33;11.33;;;;;17.09;45.93;99305.31;6274790;20;3514892;-44
2024/04/26 09:17:20;;;;;;;;;10.33;10.33;;;;;17.47;45.54;99310.78;6303425;20;3507701;-44
2024/04/26 09:19:49;;;;;;;;;9.00;9.00;;;;;16.07;47.22;99303.97;6331347;20;2742076;-43
2024/04/26 09:22:18;;;;;;;;;12.33;10.67;;;;;18.02;45.29;99310.00;6276487;20;2798195;-44
2024/04/26 09:24:45;;;;;;;;;12.67;11.00;;;;;18.65;44.80;99307.28;6302761;20;3514842;-43
2024/04/26 09:27:14;;;;;;;;;9.40;9.40;;;;;17.47;43.58;99308.06;6330883;20;2781552;-44
2024/04/26 09:29:41;;;;;;;;;10.50;10.50;;;;;17.81;41.74;99299.41;6281142;20;2784743;-44
2024/04/26 09:32:08;;;;;;;;;10.00;10.00;;;;;17.22;43.92;99301.41;6278767;20;2798337;-43
2024/04/26 09:34:37;;;;;;;;;10.00;10.00;;;;;17.29;42.64;99303.38;6308868;20;2772189;-45
2024/04/26 09:37:09;;;;;;;;;11.00;11.00;;;;;16.91;43.58;99301.63;6275485;20;3517067;-43
2024/04/26 09:39:38;;;;;;;;;11.00;10.00;;;;;17.68;43.48;99308.69;6304515;20;3512900;-45
2024/04/26 09:42:08;;;;;;;;;10.67;10.67;;;;;17.63;43.76;99294.72;6305266;20;3515875;-44
2024/04/26 09:44:38;;;;;;;;;12.67;11.67;;;;;18.32;42.40;99301.50;6305288;20;3535731;-48
2024/04/26 09:47:06;;;;;;;;;10.00;8.00;;;;;18.33;39.65;99299.66;6281379;20;2763942;-44
2024/04/26 09:49:35;;;;;;;;;11.00;9.67;;;;;17.48;41.28;99291.66;6274790;20;3503433;-42
2024/04/26 09:52:05;;;;;;;;;11.00;11.00;;;;;18.46;43.21;99293.81;6306293;20;3513977;-43
2024/04/26 09:54:33;;;;;;;;;9.67;9.67;;;;;17.60;42.82;99288.72;6305224;20;2765021;-46
2024/04/26 09:57:00;;;;;;;;;11.67;11.67;;;;;18.29;42.20;99285.50;6306347;20;3506630;-44
2024/04/26 09:59:28;;;;;;;;;12.00;11.00;;;;;17.50;45.83;99284.19;6303059;20;3462772;-44
2024/04/26 10:01:56;;;;;;;;;11.00;10.00;;;;;17.00;43.43;99292.59;6303776;20;3507682;-44
2024/04/26 10:04:24;;;;;;;;;13.33;13.33;;;;;17.51;43.11;99285.06;6310211;20;3530590;-43
2024/04/26 10:06:51;;;;;;;;;18.33;15.67;;;;;17.61;44.61;99291.28;6306710;20;3560705;-44
2024/04/26 10:09:20;;;;;;;;;16.00;14.00;;;;;16.37;43.13;99293.00;6279442;20;2797188;-43
2024/04/26 10:11:52;;;;;;;;;10.33;10.00;;;;;17.56;43.35;99280.00;6275849;20;3504511;-44
2024/04/26 10:14:32;;;;;;;;;12.33;11.33;;;;;16.85;44.02;99277.78;6305237;20;3518180;-45
2024/04/26 10:17:12;;;;;;;;;32.00;29.33;;;;;16.86;44.58;99274.94;6308635;20;3589901;-44
2024/04/26 10:19:42;;;;;;;;;21.00;20.67;;;;;16.55;44.03;99267.94;6273624;20;2829596;-44
2024/04/26 10:22:11;;;;;;;;;12.00;10.33;;;;;16.88;44.88;99278.38;6308282;20;2796238;-45
2024/04/26 10:24:42;;;;;;;;;9.20;9.20;;;;;16.57;42.84;99288.47;6330608;20;2735790;-43
2024/04/26 10:27:12;;;;;;;;;9.00;9.00;;;;;17.97;42.09;99280.56;6299582;20;2766990;-45
2024/04/26 10:29:40;;;;;;;;;15.67;12.67;;;;;18.02;43.33;99282.84;6273304;20;3536835;-44
2024/04/26 10:32:09;;;;;;;;;11.33;9.33;;;;;16.09;44.18;99282.97;6303420;20;2761839;-44
2024/04/26 10:34:37;;;;;;;;;12.50;12.50;;;;;18.05;44.39;99286.09;6307895;20;2788830;-53
2024/04/26 10:37:15;;;;;;;;;10.33;9.67;;;;;17.85;42.39;99287.22;6276681;20;3500254;-44
2024/04/26 10:39:43;;;;;;;;;13.33;13.33;;;;;18.48;42.62;99273.63;6311354;20;2801460;-44
2024/04/26 10:42:12;;;;;;;;;11.00;11.00;;;;;18.51;42.24;99272.47;6308622;20;3513902;-43
2024/04/26 10:44:40;;;;;;;;;12.67;11.00;;;;;17.94;43.68;99279.00;6309557;20;3518016;-45
2024/04/26 10:47:09;;;;;;;;;11.20;10.20;;;;;16.79;45.96;99267.50;6334894;20;2784669;-44
2024/04/26 10:49:37;;;;;;;;;11.60;10.00;;;;;16.81;45.28;99279.94;6302165;20;2781623;-43
2024/04/26 10:52:05;;;;;;;;;12.00;12.00;;;;;17.70;45.16;99278.69;6279841;20;3520057;-45
2024/04/26 10:54:39;;;;;;;;;9.00;9.00;;;;;17.21;44.03;99273.44;6277328;20;2750476;-44
2024/04/26 10:57:06;;;;;;;;;9.00;8.00;;;;;16.71;44.60;99273.63;6309116;20;2757576;-43
2024/04/26 10:59:33;;;;;;;;;11.00;9.00;;;;;16.79;45.74;99284.63;6308363;20;2756553;-45
2024/04/26 11:02:02;;;;;;;;;12.33;10.33;;;;;15.93;45.34;99276.28;6309325;20;2796151;-44
2024/04/26 11:04:35;;;;;;;;;9.20;9.20;;;;;15.75;46.20;99277.94;6337185;20;2783727;-45
2024/04/26 11:07:18;;;;;;;;;9.00;9.00;;;;;16.18;44.60;99268.63;6279498;20;2743444;-43
2024/04/26 11:09:48;;;;;;;;;11.00;11.00;;;;;16.29;47.28;99271.19;6278075;20;3520144;-43